This is the latest recevied weather packets stored in our database for station/object 5B4APJ-13. If no packets are shown the sender has not sent any weather packets the latest 10 day(s).
| Time | Temp. | Humidity | Pressure | Rain* | Wind** | Luminosity | Snow |
|---|---|---|---|---|---|---|---|
| 1777565527 | 21.11° C | 53% | 1013 hPa | 0 mm | 1.34 m/s, 252° | 16 W/m² | - |
| 1777565227 | 21.11° C | 52% | 1012.6 hPa | 0 mm | 0.45 m/s, 272° | 20 W/m² | - |
| 1777564926 | 21.67° C | 51% | 1012.7 hPa | 0 mm | 1.34 m/s, 274° | 25 W/m² | - |
| 1777564626 | 22.22° C | 50% | 1013.1 hPa | 0 mm | 0.89 m/s, 271° | 31 W/m² | - |
| 1777564326 | 22.22° C | 51% | 1013.1 hPa | 0 mm | 0.89 m/s, 252° | 38 W/m² | - |
| 1777564026 | 22.22° C | 50% | 1013 hPa | 0 mm | 1.34 m/s, 293° | 46 W/m² | - |
| 1777563726 | 23.33° C | 47% | 1013 hPa | 0 mm | 1.34 m/s, 331° | 53 W/m² | - |
| 1777563426 | 23.89° C | 34% | 1013.1 hPa | 0 mm | 0.45 m/s, 229° | 61 W/m² | - |
| 1777563126 | 23.89° C | 35% | 1013 hPa | 0 mm | 0.45 m/s, 239° | 68 W/m² | - |
| 1777562826 | 23.89° C | 35% | 1013.1 hPa | 0 mm | 0.45 m/s, 167° | 76 W/m² | - |
| 1777562526 | 23.89° C | 38% | 1013.2 hPa | 0 mm | 0.45 m/s, 239° | 85 W/m² | - |
| 1777562226 | 23.89° C | 38% | 1013.1 hPa | 0 mm | 0.89 m/s, 236° | 96 W/m² | - |
| 1777561926 | 23.89° C | 37% | 1013 hPa | 0 mm | 0.89 m/s, 207° | 107 W/m² | - |
| 1777561626 | 23.89° C | 35% | 1013.1 hPa | 0 mm | 1.34 m/s, 236° | 89 W/m² | - |
| 1777561325 | 23.89° C | 37% | 1013.1 hPa | 0 mm | 0.89 m/s, 229° | 125 W/m² | - |
| 1777561026 | 24.44° C | 36% | 1013.3 hPa | 0 mm | 0.89 m/s, 235° | 135 W/m² | - |
| 1777560727 | 24.44° C | 31% | 1013 hPa | 0 mm | 0.89 m/s, 234° | 146 W/m² | - |
| 1777560426 | 25° C | 34% | 1013.1 hPa | 0 mm | 1.79 m/s, 254° | 157 W/m² | - |
| 1777560126 | 24.44° C | 35% | 1013.1 hPa | 0 mm | 0.45 m/s, 254° | 167 W/m² | - |
| 1777559826 | 24.44° C | 36% | 1013.4 hPa | 0 mm | 0.89 m/s, 92° | 180 W/m² | - |
| 1777559526 | 24.44° C | 33% | 1013.3 hPa | 0 mm | 1.79 m/s, 245° | 193 W/m² | - |
| 1777559226 | 24.44° C | 30% | 1013.1 hPa | 0 mm | 0.45 m/s, 134° | 206 W/m² | - |
| 1777558927 | 24.44° C | 34% | 1013.4 hPa | 0 mm | 2.24 m/s, 260° | 220 W/m² | - |
| 1777558626 | 24.44° C | 28% | 1013.5 hPa | 0 mm | 1.34 m/s, 108° | 234 W/m² | - |
| 1777558327 | 25° C | 32% | 1013.4 hPa | 0 mm | 1.79 m/s, 160° | 249 W/m² | - |
* Rain latest hour (hover to see other rain measurements)
** Current wind speed in m/s (hover to see current wind gust speed)